sensor_id;sensor_type;location;lat;lon;timestamp;P1;durP1;ratioP1;P2;durP2;ratioP2
53939;SDS011;39850;43.324;21.916;2023-04-15T00:04:20;10.0;;;6.0;;
53939;SDS011;39850;43.324;21.916;2023-04-15T00:08:56;10.0;;;6.0;;
53939;SDS011;39850;43.324;21.916;2023-04-15T00:13:33;10.0;;;6.0;;
53939;SDS011;39850;43.324;21.916;2023-04-15T00:18:10;10.0;;;6.0;;
53939;SDS011;39850;43.324;21.916;2023-04-15T00:22:47;10.0;;;6.0;;
53939;SDS011;39850;43.324;21.916;2023-04-15T00:55:18;8.0;;;6.0;;
53939;SDS011;39850;43.324;21.916;2023-04-15T00:59:59;8.0;;;6.0;;
53939;SDS011;39850;43.324;21.916;2023-04-15T01:04:37;8.0;;;6.0;;
53939;SDS011;39850;43.324;21.916;2023-04-15T01:09:14;8.0;;;6.0;;
53939;SDS011;39850;43.324;21.916;2023-04-15T01:13:52;8.0;;;6.0;;
53939;SDS011;39850;43.324;21.916;2023-04-15T01:18:32;8.0;;;6.0;;
53939;SDS011;39850;43.324;21.916;2023-04-15T01:23:09;8.0;;;6.0;;
53939;SDS011;39850;43.324;21.916;2023-04-15T01:27:47;9.0;;;6.0;;
53939;SDS011;39850;43.324;21.916;2023-04-15T01:32:24;9.0;;;6.0;;
53939;SDS011;39850;43.324;21.916;2023-04-15T02:13:59;9.0;;;7.0;;
53939;SDS011;39850;43.324;21.916;2023-04-15T02:18:35;9.0;;;7.0;;
53939;SDS011;39850;43.324;21.916;2023-04-15T02:23:13;9.0;;;7.0;;
53939;SDS011;39850;43.324;21.916;2023-04-15T02:27:50;10.0;;;7.0;;
53939;SDS011;39850;43.324;21.916;2023-04-15T02:32:26;10.0;;;7.0;;
53939;SDS011;39850;43.324;21.916;2023-04-15T02:37:03;10.0;;;7.0;;
53939;SDS011;39850;43.324;21.916;2023-04-15T02:41:39;10.0;;;7.0;;
53939;SDS011;39850;43.324;21.916;2023-04-15T02:46:16;10.0;;;8.0;;
53939;SDS011;39850;43.324;21.916;2023-04-15T02:50:53;10.0;;;8.0;;
53939;SDS011;39850;43.324;21.916;2023-04-15T02:55:50;11.0;;;9.0;;
53939;SDS011;39850;43.324;21.916;2023-04-15T03:00:27;11.0;;;9.0;;
53939;SDS011;39850;43.324;21.916;2023-04-15T03:37:31;9.0;;;7.0;;
53939;SDS011;39850;43.324;21.916;2023-04-15T03:42:07;9.0;;;7.0;;
53939;SDS011;39850;43.324;21.916;2023-04-15T03:46:44;8.0;;;6.0;;
53939;SDS011;39850;43.324;21.916;2023-04-15T03:51:21;8.0;;;6.0;;
53939;SDS011;39850;43.324;21.916;2023-04-15T03:55:57;9.0;;;7.0;;
53939;SDS011;39850;43.324;21.916;2023-04-15T04:00:34;9.0;;;7.0;;
53939;SDS011;39850;43.324;21.916;2023-04-15T04:05:10;8.0;;;6.0;;
53939;SDS011;39850;43.324;21.916;2023-04-15T04:09:47;8.0;;;6.0;;
53939;SDS011;39850;43.324;21.916;2023-04-15T04:14:23;9.0;;;7.0;;
53939;SDS011;39850;43.324;21.916;2023-04-15T04:19:00;9.0;;;7.0;;
53939;SDS011;39850;43.324;21.916;2023-04-15T04:23:36;9.0;;;7.0;;
53939;SDS011;39850;43.324;21.916;2023-04-15T04:55:52;11.0;;;9.0;;
53939;SDS011;39850;43.324;21.916;2023-04-15T05:00:28;11.0;;;9.0;;
53939;SDS011;39850;43.324;21.916;2023-04-15T05:05:09;11.0;;;9.0;;
53939;SDS011;39850;43.324;21.916;2023-04-15T05:09:46;11.0;;;9.0;;
53939;SDS011;39850;43.324;21.916;2023-04-15T05:14:22;11.0;;;9.0;;
53939;SDS011;39850;43.324;21.916;2023-04-15T05:18:59;11.0;;;9.0;;
53939;SDS011;39850;43.324;21.916;2023-04-15T05:23:35;11.0;;;9.0;;
53939;SDS011;39850;43.324;21.916;2023-04-15T05:28:12;12.0;;;10.0;;
53939;SDS011;39850;43.324;21.916;2023-04-15T05:32:49;12.0;;;10.0;;
53939;SDS011;39850;43.324;21.916;2023-04-15T05:37:27;12.0;;;10.0;;
53939;SDS011;39850;43.324;21.916;2023-04-15T05:42:04;12.0;;;10.0;;
53939;SDS011;39850;43.324;21.916;2023-04-15T06:19:00;13.0;;;11.0;;
53939;SDS011;39850;43.324;21.916;2023-04-15T06:23:37;13.0;;;11.0;;
53939;SDS011;39850;43.324;21.916;2023-04-15T06:28:14;13.0;;;11.0;;
53939;SDS011;39850;43.324;21.916;2023-04-15T06:32:51;13.0;;;11.0;;
53939;SDS011;39850;43.324;21.916;2023-04-15T06:37:27;13.0;;;11.0;;
53939;SDS011;39850;43.324;21.916;2023-04-15T06:42:04;13.0;;;11.0;;
53939;SDS011;39850;43.324;21.916;2023-04-15T06:46:41;15.0;;;12.0;;
53939;SDS011;39850;43.324;21.916;2023-04-15T06:51:17;15.0;;;12.0;;
53939;SDS011;39850;43.324;21.916;2023-04-15T06:55:55;17.0;;;14.0;;
53939;SDS011;39850;43.324;21.916;2023-04-15T07:00:32;17.0;;;14.0;;
53939;SDS011;39850;43.324;21.916;2023-04-15T07:37:23;12.0;;;9.0;;
53939;SDS011;39850;43.324;21.916;2023-04-15T07:41:59;12.0;;;9.0;;
53939;SDS011;39850;43.324;21.916;2023-04-15T07:46:36;12.0;;;10.0;;
53939;SDS011;39850;43.324;21.916;2023-04-15T07:51:13;12.0;;;10.0;;
53939;SDS011;39850;43.324;21.916;2023-04-15T07:55:50;12.0;;;9.0;;
53939;SDS011;39850;43.324;21.916;2023-04-15T08:00:26;12.0;;;9.0;;
53939;SDS011;39850;43.324;21.916;2023-04-15T08:05:05;12.0;;;9.0;;
53939;SDS011;39850;43.324;21.916;2023-04-15T08:09:43;12.0;;;9.0;;
53939;SDS011;39850;43.324;21.916;2023-04-15T08:14:21;12.0;;;9.0;;
53939;SDS011;39850;43.324;21.916;2023-04-15T08:18:59;11.0;;;8.0;;
53939;SDS011;39850;43.324;21.916;2023-04-15T08:23:37;11.0;;;8.0;;
53939;SDS011;39850;43.324;21.916;2023-04-15T08:56:43;9.0;;;6.0;;
53939;SDS011;39850;43.324;21.916;2023-04-15T09:01:21;9.0;;;6.0;;
53939;SDS011;39850;43.324;21.916;2023-04-15T09:06:00;9.0;;;6.0;;
53939;SDS011;39850;43.324;21.916;2023-04-15T09:10:39;9.0;;;6.0;;
53939;SDS011;39850;43.324;21.916;2023-04-15T09:15:17;9.0;;;6.0;;
53939;SDS011;39850;43.324;21.916;2023-04-15T09:20:14;9.0;;;6.0;;
53939;SDS011;39850;43.324;21.916;2023-04-15T09:24:52;9.0;;;6.0;;
53939;SDS011;39850;43.324;21.916;2023-04-15T09:29:28;8.0;;;6.0;;
53939;SDS011;39850;43.324;21.916;2023-04-15T09:34:07;8.0;;;6.0;;
53939;SDS011;39850;43.324;21.916;2023-04-15T09:38:59;8.0;;;6.0;;
53939;SDS011;39850;43.324;21.916;2023-04-15T09:43:40;8.0;;;6.0;;
53939;SDS011;39850;43.324;21.916;2023-04-15T10:16:22;9.0;;;7.0;;
53939;SDS011;39850;43.324;21.916;2023-04-15T10:21:07;9.0;;;7.0;;
53939;SDS011;39850;43.324;21.916;2023-04-15T10:25:47;8.0;;;6.0;;
53939;SDS011;39850;43.324;21.916;2023-04-15T10:30:28;8.0;;;6.0;;
53939;SDS011;39850;43.324;21.916;2023-04-15T10:35:08;8.0;;;6.0;;
53939;SDS011;39850;43.324;21.916;2023-04-15T10:39:46;8.0;;;6.0;;
53939;SDS011;39850;43.324;21.916;2023-04-15T10:44:23;8.0;;;6.0;;
53939;SDS011;39850;43.324;21.916;2023-04-15T10:49:13;8.0;;;6.0;;
53939;SDS011;39850;43.324;21.916;2023-04-15T10:54:00;8.0;;;6.0;;
53939;SDS011;39850;43.324;21.916;2023-04-15T10:58:43;8.0;;;6.0;;
53939;SDS011;39850;43.324;21.916;2023-04-15T11:03:42;8.0;;;6.0;;
53939;SDS011;39850;43.324;21.916;2023-04-15T11:37:28;8.0;;;6.0;;
53939;SDS011;39850;43.324;21.916;2023-04-15T11:42:17;8.0;;;6.0;;
53939;SDS011;39850;43.324;21.916;2023-04-15T11:46:55;8.0;;;6.0;;
53939;SDS011;39850;43.324;21.916;2023-04-15T11:51:35;8.0;;;6.0;;
53939;SDS011;39850;43.324;21.916;2023-04-15T11:56:24;8.0;;;6.0;;
53939;SDS011;39850;43.324;21.916;2023-04-15T12:01:02;8.0;;;6.0;;
53939;SDS011;39850;43.324;21.916;2023-04-15T12:06:14;8.0;;;6.0;;
53939;SDS011;39850;43.324;21.916;2023-04-15T12:10:58;8.0;;;6.0;;
53939;SDS011;39850;43.324;21.916;2023-04-15T12:15:37;8.0;;;6.0;;
53939;SDS011;39850;43.324;21.916;2023-04-15T12:20:23;8.0;;;6.0;;
53939;SDS011;39850;43.324;21.916;2023-04-15T12:25:00;8.0;;;6.0;;
53939;SDS011;39850;43.324;21.916;2023-04-15T12:57:34;9.0;;;6.0;;
53939;SDS011;39850;43.324;21.916;2023-04-15T13:02:10;9.0;;;6.0;;
53939;SDS011;39850;43.324;21.916;2023-04-15T13:06:48;8.0;;;6.0;;
53939;SDS011;39850;43.324;21.916;2023-04-15T13:11:25;8.0;;;6.0;;
53939;SDS011;39850;43.324;21.916;2023-04-15T13:16:01;8.0;;;6.0;;
53939;SDS011;39850;43.324;21.916;2023-04-15T13:20:38;9.0;;;6.0;;
53939;SDS011;39850;43.324;21.916;2023-04-15T13:25:15;9.0;;;6.0;;
53939;SDS011;39850;43.324;21.916;2023-04-15T13:29:53;8.0;;;6.0;;
53939;SDS011;39850;43.324;21.916;2023-04-15T13:34:30;8.0;;;6.0;;
53939;SDS011;39850;43.324;21.916;2023-04-15T13:39:07;9.0;;;6.0;;
53939;SDS011;39850;43.324;21.916;2023-04-15T13:43:44;9.0;;;6.0;;
53939;SDS011;39850;43.324;21.916;2023-04-15T14:20:43;14.0;;;12.0;;
53939;SDS011;39850;43.324;21.916;2023-04-15T14:25:20;14.0;;;12.0;;
53939;SDS011;39850;43.324;21.916;2023-04-15T14:29:56;12.0;;;10.0;;
53939;SDS011;39850;43.324;21.916;2023-04-15T14:34:33;12.0;;;10.0;;
53939;SDS011;39850;43.324;21.916;2023-04-15T14:39:12;9.0;;;7.0;;
53939;SDS011;39850;43.324;21.916;2023-04-15T14:43:49;9.0;;;7.0;;
53939;SDS011;39850;43.324;21.916;2023-04-15T14:48:26;9.0;;;6.0;;
53939;SDS011;39850;43.324;21.916;2023-04-15T14:53:04;9.0;;;6.0;;
53939;SDS011;39850;43.324;21.916;2023-04-15T14:57:42;9.0;;;6.0;;
53939;SDS011;39850;43.324;21.916;2023-04-15T15:02:18;9.0;;;6.0;;
53939;SDS011;39850;43.324;21.916;2023-04-15T15:39:11;8.0;;;6.0;;
53939;SDS011;39850;43.324;21.916;2023-04-15T15:43:48;8.0;;;6.0;;
53939;SDS011;39850;43.324;21.916;2023-04-15T15:48:25;8.0;;;6.0;;
53939;SDS011;39850;43.324;21.916;2023-04-15T15:53:01;8.0;;;6.0;;
53939;SDS011;39850;43.324;21.916;2023-04-15T15:57:38;8.0;;;6.0;;
53939;SDS011;39850;43.324;21.916;2023-04-15T16:02:15;8.0;;;6.0;;
53939;SDS011;39850;43.324;21.916;2023-04-15T16:06:52;8.0;;;6.0;;
53939;SDS011;39850;43.324;21.916;2023-04-15T16:11:29;8.0;;;6.0;;
53939;SDS011;39850;43.324;21.916;2023-04-15T16:16:07;8.0;;;6.0;;
53939;SDS011;39850;43.324;21.916;2023-04-15T16:20:44;8.0;;;6.0;;
53939;SDS011;39850;43.324;21.916;2023-04-15T16:25:21;8.0;;;6.0;;
53939;SDS011;39850;43.324;21.916;2023-04-15T16:57:40;10.0;;;7.0;;
53939;SDS011;39850;43.324;21.916;2023-04-15T17:02:17;10.0;;;7.0;;
53939;SDS011;39850;43.324;21.916;2023-04-15T17:06:54;11.0;;;8.0;;
53939;SDS011;39850;43.324;21.916;2023-04-15T17:11:31;11.0;;;8.0;;
53939;SDS011;39850;43.324;21.916;2023-04-15T17:16:09;11.0;;;8.0;;
53939;SDS011;39850;43.324;21.916;2023-04-15T17:20:45;11.0;;;8.0;;
53939;SDS011;39850;43.324;21.916;2023-04-15T17:25:22;11.0;;;8.0;;
53939;SDS011;39850;43.324;21.916;2023-04-15T17:29:59;12.0;;;8.0;;
53939;SDS011;39850;43.324;21.916;2023-04-15T17:34:35;12.0;;;8.0;;
53939;SDS011;39850;43.324;21.916;2023-04-15T17:39:12;11.0;;;8.0;;
53939;SDS011;39850;43.324;21.916;2023-04-15T17:43:50;11.0;;;8.0;;
53939;SDS011;39850;43.324;21.916;2023-04-15T18:20:41;24.0;;;18.0;;
53939;SDS011;39850;43.324;21.916;2023-04-15T18:25:18;24.0;;;18.0;;
53939;SDS011;39850;43.324;21.916;2023-04-15T18:29:55;26.0;;;20.0;;
53939;SDS011;39850;43.324;21.916;2023-04-15T18:34:31;26.0;;;20.0;;
53939;SDS011;39850;43.324;21.916;2023-04-15T18:39:08;28.0;;;22.0;;
53939;SDS011;39850;43.324;21.916;2023-04-15T18:43:44;28.0;;;22.0;;
53939;SDS011;39850;43.324;21.916;2023-04-15T18:48:21;30.0;;;24.0;;
53939;SDS011;39850;43.324;21.916;2023-04-15T18:52:58;30.0;;;24.0;;
53939;SDS011;39850;43.324;21.916;2023-04-15T18:57:35;31.0;;;25.0;;
53939;SDS011;39850;43.324;21.916;2023-04-15T19:02:12;31.0;;;25.0;;
53939;SDS011;39850;43.324;21.916;2023-04-15T19:06:49;31.0;;;25.0;;
53939;SDS011;39850;43.324;21.916;2023-04-15T19:39:11;37.0;;;31.0;;
53939;SDS011;39850;43.324;21.916;2023-04-15T19:43:47;37.0;;;31.0;;
53939;SDS011;39850;43.324;21.916;2023-04-15T19:48:25;38.0;;;31.0;;
53939;SDS011;39850;43.324;21.916;2023-04-15T19:53:02;38.0;;;31.0;;
53939;SDS011;39850;43.324;21.916;2023-04-15T19:57:38;37.0;;;31.0;;
53939;SDS011;39850;43.324;21.916;2023-04-15T20:02:15;37.0;;;31.0;;
53939;SDS011;39850;43.324;21.916;2023-04-15T20:06:52;37.0;;;31.0;;
53939;SDS011;39850;43.324;21.916;2023-04-15T20:11:30;37.0;;;30.0;;
53939;SDS011;39850;43.324;21.916;2023-04-15T20:16:06;37.0;;;30.0;;
53939;SDS011;39850;43.324;21.916;2023-04-15T20:20:43;36.0;;;30.0;;
53939;SDS011;39850;43.324;21.916;2023-04-15T20:25:20;36.0;;;30.0;;
53939;SDS011;39850;43.324;21.916;2023-04-15T21:11:24;23.0;;;19.0;;
53939;SDS011;39850;43.324;21.916;2023-04-15T21:16:01;23.0;;;19.0;;
53939;SDS011;39850;43.324;21.916;2023-04-15T21:20:37;26.0;;;22.0;;
53939;SDS011;39850;43.324;21.916;2023-04-15T21:25:13;26.0;;;22.0;;
53939;SDS011;39850;43.324;21.916;2023-04-15T21:29:49;26.0;;;22.0;;
53939;SDS011;39850;43.324;21.916;2023-04-15T21:34:26;26.0;;;22.0;;
53939;SDS011;39850;43.324;21.916;2023-04-15T21:39:04;29.0;;;24.0;;
53939;SDS011;39850;43.324;21.916;2023-04-15T21:43:41;29.0;;;24.0;;
53939;SDS011;39850;43.324;21.916;2023-04-15T22:20:40;19.0;;;15.0;;
53939;SDS011;39850;43.324;21.916;2023-04-15T22:25:17;19.0;;;15.0;;
53939;SDS011;39850;43.324;21.916;2023-04-15T22:29:54;19.0;;;15.0;;
53939;SDS011;39850;43.324;21.916;2023-04-15T22:34:31;19.0;;;15.0;;
53939;SDS011;39850;43.324;21.916;2023-04-15T22:39:07;19.0;;;15.0;;
53939;SDS011;39850;43.324;21.916;2023-04-15T22:43:45;19.0;;;15.0;;
53939;SDS011;39850;43.324;21.916;2023-04-15T22:48:22;23.0;;;20.0;;
53939;SDS011;39850;43.324;21.916;2023-04-15T22:52:59;23.0;;;20.0;;
53939;SDS011;39850;43.324;21.916;2023-04-15T22:57:35;23.0;;;20.0;;
53939;SDS011;39850;43.324;21.916;2023-04-15T23:02:11;27.0;;;24.0;;
53939;SDS011;39850;43.324;21.916;2023-04-15T23:06:48;27.0;;;24.0;;
53939;SDS011;39850;43.324;21.916;2023-04-15T23:39:03;18.0;;;15.0;;
53939;SDS011;39850;43.324;21.916;2023-04-15T23:43:40;18.0;;;15.0;;
53939;SDS011;39850;43.324;21.916;2023-04-15T23:48:16;20.0;;;16.0;;
53939;SDS011;39850;43.324;21.916;2023-04-15T23:52:54;20.0;;;16.0;;
53939;SDS011;39850;43.324;21.916;2023-04-15T23:57:30;20.0;;;16.0;;
